createdAt,value
2023-04-14T00:00:19.350Z,6.30
2023-04-14T00:01:19.358Z,4.90
2023-04-14T00:02:19.439Z,5.80
2023-04-14T00:03:19.654Z,5.40
2023-04-14T00:04:19.406Z,6.50
2023-04-14T00:05:19.349Z,4.40
2023-04-14T00:06:19.370Z,5.30
2023-04-14T00:07:19.275Z,7.00
2023-04-14T00:08:19.241Z,5.30
2023-04-14T00:09:19.239Z,6.80
2023-04-14T00:10:19.233Z,5.50
2023-04-14T00:11:19.240Z,5.40
2023-04-14T00:12:19.206Z,5.30
2023-04-14T00:13:19.214Z,5.10
2023-04-14T00:14:19.173Z,4.30
2023-04-14T00:15:19.184Z,5.10
2023-04-14T00:16:19.186Z,5.70
2023-04-14T00:17:19.315Z,6.20
2023-04-14T00:18:19.148Z,5.00
2023-04-14T00:19:19.115Z,5.30
2023-04-14T00:20:19.110Z,6.20
2023-04-14T00:21:19.155Z,4.70
2023-04-14T00:22:19.092Z,5.10
2023-04-14T00:23:19.073Z,7.20
2023-04-14T00:24:19.075Z,6.10
2023-04-14T00:51:01.655Z,5.10
2023-04-14T00:52:01.584Z,5.80
2023-04-14T00:53:01.513Z,4.60
2023-04-14T00:54:01.633Z,6.90
2023-04-14T00:55:01.434Z,6.10
2023-04-14T00:56:01.413Z,5.60
2023-04-14T00:57:01.391Z,5.50
2023-04-14T00:58:01.387Z,4.50
2023-04-14T00:59:01.658Z,4.30
2023-04-14T01:00:01.465Z,6.90
2023-04-14T01:01:01.347Z,5.80
2023-04-14T01:02:01.410Z,8.50
2023-04-14T01:03:01.470Z,5.40
2023-04-14T01:04:01.334Z,7.30
2023-04-14T01:05:01.501Z,7.80
2023-04-14T01:06:01.337Z,6.60
2023-04-14T01:07:01.274Z,7.40
2023-04-14T01:08:01.261Z,5.40
2023-04-14T01:09:01.461Z,5.00
2023-04-14T01:10:01.262Z,5.90
2023-04-14T01:11:01.248Z,5.70
2023-04-14T01:12:01.241Z,5.20
2023-04-14T01:13:01.230Z,6.50
2023-04-14T01:14:01.197Z,6.40
2023-04-14T01:15:01.189Z,7.30
2023-04-14T01:16:01.222Z,6.70
2023-04-14T01:17:01.174Z,5.20
2023-04-14T01:18:01.189Z,8.70
2023-04-14T01:19:01.416Z,5.50
2023-04-14T01:20:01.134Z,7.80
2023-04-14T01:21:01.128Z,7.60
2023-04-14T01:22:01.171Z,5.00
2023-04-14T01:23:01.102Z,4.70
2023-04-14T01:24:01.115Z,7.50
2023-04-14T01:25:01.100Z,6.70
2023-04-14T01:26:01.093Z,5.80
2023-04-14T01:27:01.088Z,7.10
2023-04-14T01:28:01.038Z,6.30
2023-04-14T01:29:01.223Z,5.50
2023-04-14T01:30:01.033Z,6.20
2023-04-14T01:31:01.024Z,6.60
2023-04-14T01:32:01.237Z,5.80
2023-04-14T01:33:01.048Z,6.10
2023-04-14T01:34:00.984Z,6.50
2023-04-14T01:35:00.973Z,6.30
2023-04-14T01:36:00.951Z,5.10
2023-04-14T01:37:00.958Z,5.00
2023-04-14T01:38:02.126Z,5.70
2023-04-14T01:39:02.271Z,5.50
2023-04-14T01:40:02.108Z,5.90
2023-04-14T01:41:02.022Z,7.10
2023-04-14T01:42:02.020Z,6.40
2023-04-14T01:43:02.039Z,4.60
2023-04-14T01:44:02.012Z,5.00
2023-04-14T01:47:02.372Z,4.50
2023-04-14T01:48:02.497Z,4.80
2023-04-14T01:49:02.594Z,6.20
2023-04-14T01:50:02.269Z,5.20
2023-04-14T01:51:02.281Z,7.10
2023-04-14T01:52:02.199Z,5.30
2023-04-14T02:04:43.479Z,4.50
2023-04-14T02:05:43.455Z,6.30
2023-04-14T02:06:43.369Z,6.20
2023-04-14T02:07:43.468Z,4.90
2023-04-14T02:08:43.282Z,5.30
2023-04-14T02:09:43.328Z,5.30
2023-04-14T02:10:43.268Z,4.20
2023-04-14T02:11:43.265Z,6.10
2023-04-14T02:12:43.262Z,6.80
2023-04-14T02:13:43.231Z,4.20
2023-04-14T02:14:43.256Z,4.70
2023-04-14T02:15:43.215Z,5.10
2023-04-14T02:16:43.230Z,4.30
2023-04-14T02:17:43.221Z,7.40
2023-04-14T02:18:43.166Z,4.90
2023-04-14T02:19:43.151Z,4.10
2023-04-14T02:20:43.432Z,3.10
2023-04-14T02:21:43.169Z,5.60
2023-04-14T02:22:43.164Z,5.60
2023-04-14T02:23:43.110Z,4.80
2023-04-14T02:24:43.130Z,6.30
2023-04-14T02:25:43.081Z,5.80
2023-04-14T02:26:43.093Z,8.50
2023-04-14T02:27:43.070Z,5.20
2023-04-14T02:28:43.048Z,6.40
2023-04-14T02:29:43.037Z,5.20
2023-04-14T02:30:43.044Z,5.00
2023-04-14T02:31:43.042Z,7.30
2023-04-14T02:32:43.038Z,6.30
2023-04-14T02:33:42.994Z,6.80
2023-04-14T02:34:42.978Z,5.20
2023-04-14T02:35:42.975Z,5.50
2023-04-14T02:36:42.983Z,4.40
2023-04-14T02:37:42.945Z,7.80
2023-04-14T02:38:42.928Z,4.60
2023-04-14T02:39:42.950Z,4.40
2023-04-14T02:40:42.910Z,3.90
2023-04-14T02:41:42.918Z,5.90
2023-04-14T02:42:42.885Z,4.90
2023-04-14T02:43:42.894Z,4.50
2023-04-14T02:44:43.058Z,4.20
2023-04-14T02:45:42.856Z,4.40
2023-04-14T02:46:42.865Z,7.50
2023-04-14T02:47:42.847Z,7.00
2023-04-14T02:48:42.828Z,6.20
2023-04-14T02:49:42.826Z,7.00
2023-04-14T02:50:42.793Z,3.10
2023-04-14T02:51:42.845Z,4.80
2023-04-14T02:52:42.796Z,6.40
2023-04-14T02:53:42.791Z,6.40
2023-04-14T02:54:42.751Z,7.20
2023-04-14T02:57:18.368Z,4.80
2023-04-14T02:58:18.300Z,7.70
2023-04-14T02:59:18.290Z,6.90
2023-04-14T03:00:18.251Z,8.40
2023-04-14T03:01:18.162Z,7.20
2023-04-14T03:02:18.238Z,6.90
2023-04-14T03:22:37.246Z,6.30
2023-04-14T03:23:37.305Z,7.20
2023-04-14T03:24:37.243Z,4.80
2023-04-14T03:25:37.191Z,7.50
2023-04-14T03:26:37.178Z,9.80
2023-04-14T03:27:37.165Z,8.10
2023-04-14T03:28:38.150Z,7.10
2023-04-14T03:29:37.262Z,7.90
2023-04-14T03:30:37.045Z,7.30
2023-04-14T03:31:37.146Z,5.60
2023-04-14T03:32:37.080Z,6.80
2023-04-14T03:36:26.423Z,7.80
2023-04-14T03:37:26.489Z,10.10
2023-04-14T03:38:26.350Z,8.40
2023-04-14T03:39:26.308Z,9.60
2023-04-14T03:40:26.248Z,10.40
2023-04-14T03:41:26.225Z,7.70
2023-04-14T03:42:26.420Z,6.50
2023-04-14T03:43:26.206Z,11.20
2023-04-14T03:44:26.192Z,8.60
2023-04-14T03:45:26.185Z,10.00
2023-04-14T03:46:26.212Z,7.50
2023-04-14T03:47:26.148Z,8.70
2023-04-14T03:48:26.174Z,10.60
2023-04-14T03:49:26.136Z,7.70
2023-04-14T03:50:26.107Z,7.90
2023-04-14T03:51:26.124Z,9.30
2023-04-14T03:52:26.085Z,5.40
2023-04-14T03:53:26.096Z,11.30
2023-04-14T03:54:26.080Z,8.80
2023-04-14T03:55:26.082Z,8.80
2023-04-14T03:56:26.041Z,9.10
2023-04-14T03:57:26.031Z,11.50
2023-04-14T03:58:26.104Z,9.00
2023-04-14T03:59:26.026Z,7.80
2023-04-14T04:00:25.996Z,7.90
2023-04-14T04:01:26.104Z,9.30
2023-04-14T04:02:26.099Z,9.00
2023-04-14T04:03:26.095Z,9.70
2023-04-14T04:04:26.059Z,9.10
2023-04-14T04:05:25.939Z,8.90
2023-04-14T04:06:25.923Z,10.80
2023-04-14T04:07:25.908Z,11.50
2023-04-14T04:08:25.894Z,11.70
2023-04-14T04:09:25.889Z,10.10
2023-04-14T04:10:25.911Z,10.80
2023-04-14T04:11:25.893Z,10.00
2023-04-14T04:12:25.858Z,9.00
2023-04-14T04:13:25.844Z,8.70
2023-04-14T04:14:25.828Z,8.00
2023-04-14T04:15:25.819Z,8.30
2023-04-14T04:16:25.914Z,7.70
2023-04-14T04:17:25.807Z,11.40
2023-04-14T04:18:25.814Z,8.90
2023-04-14T04:19:25.779Z,9.80
2023-04-14T04:20:26.913Z,7.70
2023-04-14T04:21:26.953Z,10.20
2023-04-14T04:22:26.891Z,11.80
2023-04-14T04:23:26.854Z,8.00
2023-04-14T04:24:26.918Z,8.70
2023-04-14T04:25:26.846Z,8.80
2023-04-14T04:26:26.838Z,12.50
2023-04-14T04:27:28.017Z,8.40
2023-04-14T04:28:27.818Z,9.90
2023-04-14T04:29:26.831Z,8.90
2023-04-14T04:30:26.772Z,13.00
2023-04-14T04:31:26.897Z,16.40
2023-04-14T04:32:26.973Z,9.70
2023-04-14T04:33:26.755Z,8.90
2023-04-14T04:34:26.732Z,11.00
2023-04-14T04:35:26.742Z,15.00
2023-04-14T04:36:27.789Z,10.60
2023-04-14T04:37:26.706Z,14.50
2023-04-14T04:38:26.699Z,14.00
2023-04-14T04:39:26.674Z,11.20
2023-04-14T04:40:26.680Z,10.90
2023-04-14T04:41:26.696Z,9.70
2023-04-14T04:42:26.663Z,12.70
2023-04-14T04:43:26.641Z,9.60
2023-04-14T04:44:26.628Z,8.30
2023-04-14T04:45:26.643Z,10.90
2023-04-14T04:46:26.666Z,10.10
2023-04-14T04:47:26.677Z,19.50
2023-04-14T04:48:26.575Z,74.40
2023-04-14T04:49:26.567Z,85.00
2023-04-14T04:50:26.572Z,143.50
2023-04-14T04:51:26.583Z,68.90
2023-04-14T04:52:26.547Z,50.00
2023-04-14T04:53:26.540Z,34.50
2023-04-14T04:54:26.508Z,99.80
2023-04-14T04:55:26.510Z,33.60
2023-04-14T04:56:26.522Z,28.50
2023-04-14T04:57:26.490Z,17.40
2023-04-14T04:58:26.461Z,25.00
2023-04-14T04:59:26.467Z,23.10
2023-04-14T05:00:26.646Z,12.80
2023-04-14T05:01:26.495Z,19.00
2023-04-14T05:02:26.523Z,12.50
2023-04-14T05:03:27.642Z,13.80
2023-04-14T05:04:26.445Z,10.60
2023-04-14T05:05:26.388Z,11.20
2023-04-14T05:06:26.402Z,9.60
2023-04-14T05:07:26.522Z,8.70
2023-04-14T05:08:26.364Z,9.50
2023-04-14T05:12:02.114Z,8.00
2023-04-14T05:13:02.067Z,11.10
2023-04-14T05:14:02.276Z,10.00
2023-04-14T05:15:01.994Z,9.80
2023-04-14T05:16:02.274Z,8.80
2023-04-14T05:17:01.934Z,9.50
2023-04-14T05:18:02.022Z,9.20
2023-04-14T05:19:02.089Z,7.50
2023-04-14T05:20:01.870Z,8.70
2023-04-14T05:21:01.873Z,9.40
2023-04-14T05:22:01.918Z,8.40
2023-04-14T05:23:01.852Z,9.80
2023-04-14T05:24:01.826Z,8.80
2023-04-14T05:25:01.837Z,7.40
2023-04-14T05:26:16.294Z,8.30
2023-04-14T05:27:12.987Z,13.50
2023-04-14T05:28:02.809Z,8.90
2023-04-14T05:29:01.982Z,8.90
2023-04-14T05:30:01.829Z,12.40
2023-04-14T05:31:01.730Z,10.70
2023-04-14T05:32:01.726Z,9.90
2023-04-14T05:33:01.803Z,8.90
2023-04-14T05:34:01.986Z,12.60
2023-04-14T05:35:01.701Z,7.80
2023-04-14T05:36:01.675Z,10.30
2023-04-14T05:37:01.670Z,9.30
2023-04-14T05:38:01.671Z,9.60
2023-04-14T05:39:01.662Z,8.70
2023-04-14T05:40:01.820Z,10.50
2023-04-14T05:41:01.635Z,13.80
2023-04-14T05:42:01.623Z,10.10
2023-04-14T05:43:01.602Z,9.70
2023-04-14T05:44:01.857Z,9.90
2023-04-14T05:45:01.610Z,9.90
2023-04-14T05:46:01.727Z,10.40
2023-04-14T05:47:01.613Z,9.70
2023-04-14T05:48:01.605Z,7.20
2023-04-14T05:49:01.964Z,8.90
2023-04-14T05:50:01.537Z,7.70
2023-04-14T05:51:01.537Z,7.80
2023-04-14T05:52:01.498Z,11.50
2023-04-14T05:53:01.488Z,12.10
2023-04-14T05:54:01.763Z,10.70
2023-04-14T05:55:01.461Z,12.90
2023-04-14T05:56:01.484Z,9.20
2023-04-14T05:57:01.610Z,10.40
2023-04-14T05:58:01.425Z,8.10
2023-04-14T05:59:01.403Z,10.20
2023-04-14T06:00:03.178Z,14.60
2023-04-14T06:01:02.545Z,7.90
2023-04-14T06:02:02.579Z,9.60
2023-04-14T06:03:02.662Z,12.30
2023-04-14T06:04:02.844Z,10.60
2023-04-14T06:05:02.577Z,12.60
2023-04-14T06:06:02.452Z,9.90
2023-04-14T06:07:02.460Z,8.90
2023-04-14T06:08:02.414Z,10.50
2023-04-14T06:09:03.075Z,14.50
2023-04-14T06:10:02.402Z,9.00
2023-04-14T06:11:02.376Z,7.30
2023-04-14T06:12:02.414Z,12.60
2023-04-14T06:13:02.345Z,12.10
2023-04-14T06:14:03.343Z,11.30
2023-04-14T06:15:02.327Z,11.10
2023-04-14T06:16:02.367Z,9.40
2023-04-14T06:17:02.302Z,13.40
2023-04-14T06:18:02.345Z,9.20
2023-04-14T06:19:02.581Z,11.00
2023-04-14T06:20:02.330Z,9.90
2023-04-14T06:21:02.334Z,11.90
2023-04-14T06:22:02.304Z,9.10
2023-04-14T06:23:02.278Z,9.20
2023-04-14T06:24:02.238Z,13.80
2023-04-14T06:25:02.340Z,14.60
2023-04-14T06:26:02.236Z,11.70
2023-04-14T06:27:02.203Z,11.00
2023-04-14T06:28:02.230Z,11.30
2023-04-14T06:29:02.400Z,10.90
2023-04-14T06:30:02.176Z,12.60
2023-04-14T06:31:02.203Z,11.30
2023-04-14T06:32:02.266Z,11.50
2023-04-14T06:33:02.217Z,11.40
2023-04-14T06:34:02.140Z,10.10
2023-04-14T06:35:02.119Z,12.00
2023-04-14T06:36:02.155Z,13.10
2023-04-14T06:37:02.191Z,11.80
2023-04-14T06:38:02.355Z,14.40
2023-04-14T06:39:02.345Z,11.50
2023-04-14T06:40:02.075Z,12.30
2023-04-14T06:41:02.069Z,13.80
2023-04-14T06:42:02.060Z,11.50
2023-04-14T06:43:02.038Z,11.00
2023-04-14T06:44:02.074Z,13.60
2023-04-14T06:45:02.011Z,10.70
2023-04-14T06:46:02.025Z,10.30
2023-04-14T06:47:02.004Z,10.30
2023-04-14T06:48:02.047Z,10.10
2023-04-14T06:49:02.073Z,10.30
2023-04-14T06:50:02.009Z,10.10
2023-04-14T06:51:01.938Z,12.40
2023-04-14T06:52:02.008Z,10.70
2023-04-14T06:53:01.989Z,10.70
2023-04-14T06:54:02.217Z,11.40
2023-04-14T06:55:01.911Z,11.00
2023-04-14T06:56:01.887Z,12.50
2023-04-14T06:57:01.863Z,12.60
2023-04-14T06:58:01.868Z,13.90
2023-04-14T06:59:02.013Z,12.90
2023-04-14T07:00:01.870Z,13.90
2023-04-14T07:01:01.870Z,12.50
2023-04-14T07:02:01.885Z,11.90
2023-04-14T07:03:01.828Z,13.00
2023-04-14T07:04:03.250Z,15.00
2023-04-14T07:05:01.829Z,15.10
2023-04-14T07:06:01.771Z,15.40
2023-04-14T07:07:02.072Z,14.80
2023-04-14T07:08:01.734Z,14.50
2023-04-14T07:09:01.731Z,14.90
2023-04-14T07:10:01.806Z,12.10
2023-04-14T07:11:01.737Z,11.10
2023-04-14T07:12:02.684Z,11.90
2023-04-14T07:13:01.691Z,10.90
2023-04-14T07:14:01.873Z,13.00
2023-04-14T07:15:01.691Z,14.70
2023-04-14T07:16:01.708Z,12.60
2023-04-14T07:17:01.636Z,12.90
2023-04-14T07:18:01.659Z,14.40
2023-04-14T07:19:01.611Z,13.20
2023-04-14T07:20:01.830Z,14.50
2023-04-14T07:21:01.603Z,15.00
2023-04-14T07:22:01.593Z,15.40
2023-04-14T07:23:01.563Z,17.40
2023-04-14T07:24:01.762Z,16.40
2023-04-14T07:25:01.563Z,17.80
2023-04-14T07:26:01.521Z,15.60
2023-04-14T07:27:01.554Z,12.90
2023-04-14T07:28:03.954Z,14.80
2023-04-14T07:29:02.493Z,17.20
2023-04-14T07:30:01.483Z,17.10
2023-04-14T07:31:01.478Z,33.60
2023-04-14T07:32:01.489Z,13.20
2023-04-14T07:33:01.523Z,26.00
2023-04-14T07:34:01.775Z,12.30
2023-04-14T07:35:01.424Z,13.00
2023-04-14T07:36:03.425Z,11.50
2023-04-14T07:37:02.431Z,13.30
2023-04-14T07:38:01.384Z,15.90
2023-04-14T07:39:01.366Z,14.30
2023-04-14T07:40:01.406Z,14.50
2023-04-14T07:41:01.424Z,15.20
2023-04-14T07:42:01.369Z,18.90
2023-04-14T07:43:01.440Z,21.50
2023-04-14T07:44:01.393Z,15.60
2023-04-14T07:45:01.518Z,25.20
2023-04-14T07:46:01.295Z,27.00
2023-04-14T07:47:01.320Z,47.60
2023-04-14T07:48:01.318Z,84.80
2023-04-14T07:49:15.809Z,46.50
2023-04-14T07:50:21.626Z,548.30
2023-04-14T07:52:55.013Z,206.60
2023-04-14T07:53:01.474Z,270.20
2023-04-14T07:54:01.794Z,163.90
2023-04-14T07:55:06.438Z,85.90
2023-04-14T07:56:01.447Z,130.00
2023-04-14T07:57:01.407Z,144.50
2023-04-14T07:58:01.399Z,364.40
2023-04-14T07:59:01.607Z,261.30
2023-04-14T08:00:01.413Z,59.00
2023-04-14T08:01:01.352Z,73.00
2023-04-14T08:02:01.453Z,60.70
2023-04-14T08:03:01.473Z,25.70
2023-04-14T08:04:01.639Z,32.90
2023-04-14T08:05:01.326Z,26.20
2023-04-14T08:06:01.313Z,21.30
2023-04-14T08:07:01.289Z,14.30
2023-04-14T08:08:01.291Z,21.30
2023-04-14T08:09:01.459Z,20.20
2023-04-14T08:10:01.249Z,14.60
2023-04-14T08:11:01.300Z,14.60
2023-04-14T08:12:01.246Z,16.10
2023-04-14T08:13:03.570Z,17.30
2023-04-14T08:14:01.234Z,16.80
2023-04-14T08:15:01.200Z,13.80
2023-04-14T08:16:01.214Z,11.20
2023-04-14T08:17:01.176Z,12.40
2023-04-14T08:18:01.222Z,12.90
2023-04-14T08:19:01.515Z,15.90
2023-04-14T08:20:01.131Z,14.00
2023-04-14T08:21:01.150Z,13.20
2023-04-14T08:22:01.104Z,14.60
2023-04-14T08:23:01.170Z,11.80
2023-04-14T08:24:01.602Z,15.50
2023-04-14T08:25:01.104Z,14.40
2023-04-14T08:26:01.124Z,12.70
2023-04-14T08:27:01.070Z,15.30
2023-04-14T08:28:01.078Z,13.10
2023-04-14T08:29:01.321Z,14.70
2023-04-14T08:30:01.029Z,14.10
2023-04-14T08:31:01.017Z,12.50
2023-04-14T08:32:01.046Z,16.30
2023-04-14T08:33:01.146Z,13.10
2023-04-14T08:34:01.029Z,12.30
2023-04-14T08:35:37.200Z,13.50
2023-04-14T08:36:01.049Z,15.20
2023-04-14T08:37:00.968Z,13.40
2023-04-14T08:38:00.947Z,11.80
2023-04-14T08:39:01.044Z,15.20
2023-04-14T08:40:00.936Z,14.60
2023-04-14T08:41:00.903Z,14.50
2023-04-14T08:42:01.935Z,12.10
2023-04-14T08:43:00.889Z,15.30
2023-04-14T08:44:00.864Z,11.80
2023-04-14T08:45:00.910Z,13.30
2023-04-14T08:46:00.899Z,14.60
2023-04-14T08:47:00.833Z,14.30
2023-04-14T08:48:00.898Z,15.20
2023-04-14T08:49:00.961Z,14.70
2023-04-14T08:50:00.845Z,15.20
2023-04-14T08:51:00.809Z,14.60
2023-04-14T08:52:00.790Z,15.60
2023-04-14T08:53:00.762Z,11.70
2023-04-14T08:54:01.020Z,12.40
2023-04-14T08:55:00.750Z,14.70
2023-04-14T08:56:00.822Z,11.60
2023-04-14T08:57:00.727Z,13.30
2023-04-14T08:58:00.741Z,13.40
2023-04-14T08:59:00.718Z,14.30
2023-04-14T09:00:00.690Z,10.40
2023-04-14T09:01:00.918Z,11.00
2023-04-14T09:02:00.758Z,9.40
2023-04-14T09:03:00.865Z,10.40
2023-04-14T09:04:00.965Z,11.40
2023-04-14T09:05:00.706Z,10.30
2023-04-14T09:06:00.620Z,9.60
2023-04-14T09:07:00.634Z,11.30
2023-04-14T09:08:00.621Z,9.30
2023-04-14T09:09:00.593Z,9.10
2023-04-14T09:10:00.577Z,10.60
2023-04-14T09:11:00.567Z,8.70
2023-04-14T09:12:00.573Z,9.30
2023-04-14T09:13:00.559Z,7.00
2023-04-14T09:14:00.821Z,8.00
2023-04-14T09:15:00.554Z,6.70
2023-04-14T09:16:00.534Z,9.70
2023-04-14T09:17:00.604Z,9.10
2023-04-14T09:18:00.517Z,7.10
2023-04-14T09:19:07.406Z,7.20
2023-04-14T09:20:35.251Z,8.20
2023-04-14T09:21:30.470Z,10.00
2023-04-14T09:22:01.501Z,10.50
2023-04-14T09:23:00.448Z,6.90
2023-04-14T09:24:00.582Z,10.90
2023-04-14T09:25:00.431Z,16.10
2023-04-14T09:26:00.448Z,8.00
2023-04-14T09:27:00.466Z,10.10
2023-04-14T09:28:00.440Z,9.70
2023-04-14T09:29:00.612Z,9.50
2023-04-14T09:30:00.378Z,9.80
2023-04-14T09:31:00.377Z,8.50
2023-04-14T09:32:00.368Z,11.80
2023-04-14T09:33:00.457Z,11.80
2023-04-14T09:34:00.607Z,8.70
2023-04-14T09:35:00.340Z,8.80
2023-04-14T09:36:00.304Z,10.50
2023-04-14T09:37:00.290Z,8.90
2023-04-14T09:38:00.397Z,10.00
2023-04-14T09:39:00.267Z,8.60
2023-04-14T09:40:00.257Z,10.10
2023-04-14T09:41:00.254Z,9.00
2023-04-14T09:42:00.240Z,7.90
2023-04-14T09:43:00.216Z,11.70
2023-04-14T09:44:00.501Z,8.60
2023-04-14T09:45:00.204Z,8.10
2023-04-14T09:46:00.208Z,9.70
2023-04-14T09:47:00.188Z,9.40
2023-04-14T09:48:00.237Z,8.10
2023-04-14T09:49:00.994Z,10.90
2023-04-14T09:50:00.184Z,8.30
2023-04-14T09:51:00.149Z,9.30
2023-04-14T09:52:00.147Z,13.60
2023-04-14T09:53:00.126Z,11.30
2023-04-14T09:54:00.592Z,11.00
2023-04-14T09:55:00.096Z,9.30
2023-04-14T09:56:00.143Z,7.70
2023-04-14T09:57:00.093Z,10.70
2023-04-14T09:58:00.416Z,10.00
2023-04-14T09:59:00.473Z,10.20
2023-04-14T10:00:00.094Z,8.20
2023-04-14T10:01:00.030Z,7.70
2023-04-14T10:02:00.173Z,7.40
2023-04-14T10:03:00.047Z,9.20
2023-04-14T10:03:59.981Z,9.30
2023-04-14T10:05:00.039Z,10.00
2023-04-14T10:05:59.975Z,8.90
2023-04-14T10:06:59.958Z,9.90
2023-04-14T10:07:59.958Z,7.90
2023-04-14T10:09:00.202Z,8.10
2023-04-14T10:09:59.984Z,6.70
2023-04-14T10:10:59.931Z,8.30
2023-04-14T10:11:59.902Z,8.60
2023-04-14T10:12:59.918Z,8.10
2023-04-14T10:13:59.887Z,10.60
2023-04-14T10:14:59.867Z,8.40
2023-04-14T10:15:59.949Z,8.50
2023-04-14T10:16:59.870Z,10.20
2023-04-14T10:17:59.862Z,10.80
2023-04-14T10:19:00.298Z,8.80
2023-04-14T10:19:59.832Z,7.40
2023-04-14T10:20:59.839Z,10.10
2023-04-14T10:21:59.803Z,6.80
2023-04-14T10:22:59.836Z,8.90
2023-04-14T10:23:59.771Z,10.00
2023-04-14T10:24:59.766Z,9.60
2023-04-14T10:25:59.801Z,9.10
2023-04-14T10:26:59.771Z,10.10
2023-04-14T10:27:59.733Z,12.50
2023-04-14T10:28:59.841Z,10.20
2023-04-14T10:29:59.718Z,10.10
2023-04-14T10:30:59.718Z,9.20
2023-04-14T10:31:59.796Z,10.30
2023-04-14T10:32:59.730Z,9.40
2023-04-14T10:33:59.684Z,10.50
2023-04-14T10:34:59.678Z,9.20
2023-04-14T10:35:59.665Z,13.30
2023-04-14T10:36:59.690Z,11.70
2023-04-14T10:37:59.640Z,8.50
2023-04-14T10:38:59.919Z,9.40
2023-04-14T10:39:59.605Z,8.60
2023-04-14T10:40:59.611Z,10.60
2023-04-14T10:41:59.632Z,9.10
2023-04-14T10:42:59.577Z,7.80
2023-04-14T10:44:00.292Z,10.30
2023-04-14T10:44:59.569Z,9.20
2023-04-14T10:45:59.554Z,8.20
2023-04-14T10:46:59.662Z,9.00
2023-04-14T10:47:59.593Z,6.20
2023-04-14T10:48:59.907Z,7.60
2023-04-14T10:49:59.586Z,7.60
2023-04-14T10:50:59.507Z,9.00
2023-04-14T10:51:59.483Z,6.90
2023-04-14T10:53:00.153Z,7.00
2023-04-14T10:53:59.471Z,9.30
2023-04-14T10:54:59.473Z,7.00
2023-04-14T10:55:59.431Z,8.20
2023-04-14T10:56:59.433Z,8.70
2023-04-14T10:57:59.468Z,7.80
2023-04-14T10:58:59.512Z,6.50
2023-04-14T10:59:59.558Z,6.70
2023-04-14T11:00:59.397Z,7.30
2023-04-14T11:01:59.488Z,7.70
2023-04-14T11:02:59.544Z,7.10
2023-04-14T11:03:59.446Z,6.60
2023-04-14T11:04:59.363Z,6.30
2023-04-14T11:05:59.325Z,6.30
2023-04-14T11:06:59.315Z,6.10
2023-04-14T11:08:02.384Z,9.80
2023-04-14T11:09:00.581Z,8.80
2023-04-14T11:09:59.289Z,7.20
2023-04-14T11:10:59.350Z,7.80
2023-04-14T11:11:59.252Z,7.90
2023-04-14T11:12:59.263Z,7.50
2023-04-14T11:13:59.256Z,8.00
2023-04-14T11:14:59.248Z,9.10
2023-04-14T11:15:59.220Z,8.40
2023-04-14T11:17:03.439Z,7.40
2023-04-14T11:18:00.226Z,7.50
2023-04-14T11:18:59.219Z,6.60
2023-04-14T11:19:59.184Z,10.30
2023-04-14T11:20:59.205Z,6.00
2023-04-14T11:21:59.158Z,7.10
2023-04-14T11:22:59.133Z,7.20
2023-04-14T11:23:59.145Z,8.10
2023-04-14T11:24:59.172Z,7.90
2023-04-14T11:25:59.102Z,6.50
2023-04-14T11:26:59.088Z,6.70
2023-04-14T11:27:59.081Z,7.70
2023-04-14T11:28:59.231Z,6.70
2023-04-14T11:29:59.088Z,6.70
2023-04-14T11:30:59.110Z,9.40
2023-04-14T11:31:59.064Z,8.10
2023-04-14T11:32:59.104Z,7.60
2023-04-14T11:33:59.050Z,7.90
2023-04-14T11:34:59.016Z,8.10
2023-04-14T11:35:59.039Z,9.20
2023-04-14T11:36:58.985Z,8.80
2023-04-14T11:37:58.955Z,8.00
2023-04-14T11:38:59.080Z,8.90
2023-04-14T11:39:58.963Z,7.70
2023-04-14T11:40:58.974Z,9.10
2023-04-14T11:41:58.922Z,8.60
2023-04-14T11:42:58.922Z,5.50
2023-04-14T11:43:58.896Z,6.90
2023-04-14T11:44:58.901Z,8.00
2023-04-14T11:45:58.919Z,5.90
2023-04-14T11:46:58.893Z,7.00
2023-04-14T11:47:58.977Z,8.30
2023-04-14T11:48:58.943Z,9.30
2023-04-14T11:49:58.841Z,8.50
2023-04-14T11:50:58.826Z,9.00
2023-04-14T11:51:58.861Z,9.20
2023-04-14T11:52:58.817Z,8.80
2023-04-14T11:53:58.867Z,6.10
2023-04-14T11:54:58.785Z,9.90
2023-04-14T11:55:58.804Z,10.20
2023-04-14T11:56:58.804Z,6.50
2023-04-14T11:57:58.781Z,7.40
2023-04-14T11:58:58.778Z,10.60
2023-04-14T11:59:58.728Z,7.90
2023-04-14T12:00:58.734Z,11.10
2023-04-14T12:01:58.818Z,8.00
2023-04-14T12:02:58.896Z,5.30
2023-04-14T12:03:58.913Z,6.40
2023-04-14T12:04:58.826Z,5.40
2023-04-14T12:05:58.662Z,7.20
2023-04-14T12:06:58.661Z,7.20
2023-04-14T12:07:58.666Z,6.50
2023-04-14T12:08:58.630Z,6.20
2023-04-14T12:09:58.730Z,6.00
2023-04-14T12:10:58.626Z,7.00
2023-04-14T12:11:58.605Z,6.50
2023-04-14T12:12:58.635Z,8.00
2023-04-14T12:13:58.575Z,6.80
2023-04-14T12:14:58.565Z,6.70
2023-04-14T12:15:58.655Z,5.30
2023-04-14T12:16:58.544Z,8.00
2023-04-14T12:17:58.596Z,6.70
2023-04-14T12:18:58.558Z,8.70
2023-04-14T12:19:58.514Z,7.20
2023-04-14T12:20:58.515Z,6.20
2023-04-14T12:21:58.490Z,6.90
2023-04-14T12:22:58.505Z,7.00
2023-04-14T12:23:58.507Z,6.90
2023-04-14T12:24:58.465Z,7.10
2023-04-14T12:25:58.441Z,8.20
2023-04-14T12:26:58.442Z,5.60
2023-04-14T12:27:58.457Z,7.80
2023-04-14T12:28:58.467Z,7.20
2023-04-14T12:29:58.406Z,7.50
2023-04-14T12:30:58.399Z,6.80
2023-04-14T12:31:58.433Z,7.70
2023-04-14T12:32:58.408Z,7.60
2023-04-14T12:33:58.381Z,6.30
2023-04-14T12:34:58.408Z,6.90
2023-04-14T12:35:58.350Z,7.60
2023-04-14T12:36:58.341Z,6.30
2023-04-14T12:37:58.308Z,6.80
2023-04-14T12:38:58.303Z,8.50
2023-04-14T12:39:58.394Z,6.90
2023-04-14T12:40:58.285Z,10.00
2023-04-14T12:41:58.265Z,7.50
2023-04-14T12:42:58.401Z,6.40
2023-04-14T12:43:58.272Z,5.30
2023-04-14T12:44:58.231Z,8.10
2023-04-14T12:45:58.292Z,7.30
2023-04-14T12:46:58.234Z,6.60
2023-04-14T12:47:58.242Z,7.40
2023-04-14T12:48:58.177Z,7.30
2023-04-14T12:49:58.172Z,7.80
2023-04-14T12:50:58.196Z,5.00
2023-04-14T12:51:58.224Z,6.10
2023-04-14T12:52:58.133Z,6.00
2023-04-14T12:53:58.121Z,8.50
2023-04-14T12:54:58.113Z,6.70
2023-04-14T12:55:58.131Z,6.30
2023-04-14T12:56:58.084Z,6.40
2023-04-14T12:57:58.140Z,6.20
2023-04-14T12:58:58.049Z,6.20
2023-04-14T12:59:58.036Z,6.70
2023-04-14T13:00:58.051Z,5.90
2023-04-14T13:01:58.180Z,6.00
2023-04-14T13:02:58.171Z,6.70
2023-04-14T13:03:59.097Z,5.40
2023-04-14T13:04:57.974Z,5.90
2023-04-14T13:05:57.958Z,6.10
2023-04-14T13:06:57.966Z,7.20
2023-04-14T13:07:57.935Z,8.20
2023-04-14T13:08:57.930Z,8.50
2023-04-14T13:09:57.918Z,9.20
2023-04-14T13:10:57.890Z,5.50
2023-04-14T13:11:57.917Z,5.30
2023-04-14T13:12:57.872Z,6.60
2023-04-14T13:13:57.887Z,6.80
2023-04-14T13:14:57.848Z,5.80
2023-04-14T13:16:13.978Z,4.80
2023-04-14T13:16:57.860Z,6.00
2023-04-14T13:17:57.856Z,4.50
2023-04-14T13:18:57.803Z,5.90
2023-04-14T13:19:57.802Z,7.40
2023-04-14T13:20:57.796Z,5.40
2023-04-14T13:21:57.806Z,6.80
2023-04-14T13:22:57.770Z,4.40
2023-04-14T13:23:57.753Z,6.30
2023-04-14T13:24:57.732Z,5.00
2023-04-14T13:25:57.739Z,7.10
2023-04-14T13:26:57.711Z,5.70
2023-04-14T13:27:57.746Z,6.90
2023-04-14T13:28:57.689Z,4.50
2023-04-14T13:29:57.674Z,5.00
2023-04-14T13:30:57.677Z,6.40
2023-04-14T13:31:57.686Z,5.40
2023-04-14T13:32:57.757Z,6.40
2023-04-14T13:33:57.851Z,5.00
2023-04-14T13:34:57.648Z,6.50
2023-04-14T13:35:57.610Z,5.50
2023-04-14T13:36:57.590Z,5.90
2023-04-14T13:37:58.105Z,5.70
2023-04-14T13:38:57.585Z,5.00
2023-04-14T13:39:57.556Z,5.50
2023-04-14T13:40:57.561Z,5.20
2023-04-14T13:41:57.537Z,7.40
2023-04-14T13:42:57.535Z,4.70
2023-04-14T13:43:57.580Z,6.40
2023-04-14T13:44:57.507Z,6.90
2023-04-14T13:45:57.524Z,6.10
2023-04-14T13:46:57.919Z,6.30
2023-04-14T13:47:57.495Z,6.30
2023-04-14T13:48:57.640Z,5.40
2023-04-14T13:49:57.466Z,5.70
2023-04-14T13:50:57.448Z,6.50
2023-04-14T13:51:57.434Z,5.40
2023-04-14T13:52:57.428Z,5.50
2023-04-14T13:53:57.411Z,4.20
2023-04-14T13:54:57.442Z,6.90
2023-04-14T13:55:57.386Z,6.20
2023-04-14T13:56:57.442Z,6.30
2023-04-14T13:57:57.364Z,6.80
2023-04-14T13:58:57.343Z,7.70
2023-04-14T13:59:57.393Z,7.30
2023-04-14T14:00:57.367Z,6.30
2023-04-14T14:01:57.502Z,5.40
2023-04-14T14:02:57.451Z,5.60
2023-04-14T14:03:57.473Z,6.60
2023-04-14T14:04:57.288Z,4.70
2023-04-14T14:05:57.291Z,6.30
2023-04-14T14:06:57.260Z,6.80
2023-04-14T14:07:57.263Z,7.20
2023-04-14T14:08:57.229Z,7.40
2023-04-14T14:09:57.234Z,5.60
2023-04-14T14:10:57.271Z,5.20
2023-04-14T14:11:57.205Z,6.50
2023-04-14T14:12:57.190Z,8.40
2023-04-14T14:13:57.189Z,6.10
2023-04-14T14:14:57.170Z,5.50